createdAt,value
2022-10-01T00:00:52.397Z,6.69
2022-10-01T00:01:54.300Z,6.69
2022-10-01T00:02:55.927Z,6.7
2022-10-01T00:03:57.619Z,6.7
2022-10-01T00:04:59.355Z,6.71
2022-10-01T00:06:01.074Z,6.71
2022-10-01T00:07:02.814Z,6.71
2022-10-01T00:08:04.528Z,6.73
2022-10-01T00:09:06.269Z,6.73
2022-10-01T00:10:08.011Z,6.73
2022-10-01T00:11:09.765Z,6.73
2022-10-01T00:12:11.475Z,6.73
2022-10-01T00:13:13.211Z,6.73
2022-10-01T00:14:14.936Z,6.73
2022-10-01T00:15:16.678Z,6.74
2022-10-01T00:16:18.476Z,6.73
2022-10-01T00:17:20.178Z,6.73
2022-10-01T00:18:22.211Z,6.72
2022-10-01T00:19:23.624Z,6.73
2022-10-01T00:20:25.368Z,6.73
2022-10-01T00:21:27.098Z,6.72
2022-10-01T00:22:28.838Z,6.72
2022-10-01T00:23:30.549Z,6.71
2022-10-01T00:24:32.301Z,6.7
2022-10-01T00:25:34.039Z,6.7
2022-10-01T00:26:35.745Z,6.69
2022-10-01T00:27:37.554Z,6.69
2022-10-01T00:28:39.229Z,6.68
2022-10-01T00:29:40.961Z,6.67
2022-10-01T00:30:42.696Z,6.67
2022-10-01T00:31:44.498Z,6.67
2022-10-01T00:32:46.180Z,6.67
2022-10-01T00:33:47.902Z,6.67
2022-10-01T00:34:49.639Z,6.67
2022-10-01T00:35:51.373Z,6.67
2022-10-01T00:36:53.091Z,6.66
2022-10-01T00:37:54.846Z,6.66
2022-10-01T00:38:56.587Z,6.66
2022-10-01T00:39:58.297Z,6.66
2022-10-01T00:41:00.054Z,6.67
2022-10-01T00:42:01.766Z,6.67
2022-10-01T00:43:03.515Z,6.67
2022-10-01T00:44:05.232Z,6.67
2022-10-01T00:45:06.959Z,6.68
2022-10-01T00:46:08.782Z,6.69
2022-10-01T00:47:10.491Z,6.7
2022-10-01T00:48:12.186Z,6.69
2022-10-01T00:49:13.900Z,6.71
2022-10-01T00:50:15.644Z,6.72
2022-10-01T00:51:17.362Z,6.74
2022-10-01T00:52:19.110Z,6.74
2022-10-01T00:53:20.840Z,6.75
2022-10-01T00:54:22.569Z,6.75
2022-10-01T00:55:24.311Z,6.76
2022-10-01T00:56:26.066Z,6.77
2022-10-01T00:57:27.773Z,6.78
2022-10-01T00:58:29.526Z,6.79
2022-10-01T00:59:31.247Z,6.79
2022-10-01T01:00:32.974Z,6.79
2022-10-01T01:01:35.117Z,6.8
2022-10-01T01:02:36.493Z,6.8
2022-10-01T01:03:38.182Z,6.81
2022-10-01T01:04:39.925Z,6.81
2022-10-01T01:05:41.668Z,6.82
2022-10-01T01:06:43.385Z,6.82
2022-10-01T01:07:45.125Z,6.83
2022-10-01T01:08:46.873Z,6.83
2022-10-01T01:09:48.584Z,6.84
2022-10-01T01:10:50.318Z,6.84
2022-10-01T01:11:52.051Z,6.85
2022-10-01T01:12:53.803Z,6.86
2022-10-01T01:13:55.543Z,6.86
2022-10-01T01:14:57.265Z,6.87
2022-10-01T01:15:59.035Z,6.88
2022-10-01T01:17:00.741Z,6.88
2022-10-01T01:18:02.453Z,6.88
2022-10-01T01:19:04.197Z,6.9
2022-10-01T01:20:05.932Z,6.91
2022-10-01T01:21:07.658Z,6.92
2022-10-01T01:22:09.398Z,6.91
2022-10-01T01:23:11.134Z,6.93
2022-10-01T01:24:12.877Z,6.93
2022-10-01T01:25:14.593Z,6.94
2022-10-01T01:26:16.340Z,6.94
2022-10-01T01:27:18.056Z,6.96
2022-10-01T01:28:19.864Z,6.96
2022-10-01T01:29:21.525Z,6.97
2022-10-01T01:30:23.260Z,6.98
2022-10-01T01:31:25.070Z,7
2022-10-01T01:32:26.714Z,7.01
2022-10-01T01:33:28.462Z,7.02
2022-10-01T01:34:30.215Z,7.03
2022-10-01T01:35:31.953Z,7.06
2022-10-01T01:36:33.665Z,7.07
2022-10-01T01:37:35.407Z,7.08
2022-10-01T01:38:37.137Z,7.1
2022-10-01T01:39:38.878Z,7.12
2022-10-01T01:40:40.604Z,7.13
2022-10-01T01:41:42.360Z,7.13
2022-10-01T01:42:44.081Z,7.15
2022-10-01T01:43:45.800Z,7.17
2022-10-01T01:44:47.554Z,7.18
2022-10-01T01:45:49.348Z,7.19
2022-10-01T01:46:51.000Z,7.21
2022-10-01T01:47:52.767Z,7.22
2022-10-01T01:48:54.477Z,7.24
2022-10-01T01:49:56.221Z,7.26
2022-10-01T01:50:57.940Z,7.26
2022-10-01T01:51:59.682Z,7.28
2022-10-01T01:53:01.412Z,7.29
2022-10-01T01:54:03.148Z,7.3
2022-10-01T01:55:04.887Z,7.31
2022-10-01T01:56:06.616Z,7.32
2022-10-01T01:57:08.356Z,7.33
2022-10-01T01:58:10.086Z,7.35
2022-10-01T01:59:11.812Z,7.37
2022-10-01T02:00:13.579Z,7.38
2022-10-01T02:01:15.335Z,7.4
2022-10-01T02:02:17.114Z,7.42
2022-10-01T02:03:18.766Z,7.44
2022-10-01T02:04:20.507Z,7.46
2022-10-01T02:05:22.233Z,7.48
2022-10-01T02:06:23.953Z,7.51
2022-10-01T02:07:25.687Z,7.52
2022-10-01T02:08:27.437Z,7.55
2022-10-01T02:09:29.154Z,7.57
2022-10-01T02:10:30.912Z,7.59
2022-10-01T02:11:32.885Z,7.62
2022-10-01T02:12:34.344Z,7.64
2022-10-01T02:13:36.093Z,7.66
2022-10-01T02:14:37.823Z,7.69
2022-10-01T02:15:39.597Z,7.71
2022-10-01T02:16:41.277Z,7.73
2022-10-01T02:17:43.022Z,7.75
2022-10-01T02:18:44.758Z,7.79
2022-10-01T02:19:46.501Z,7.8
2022-10-01T02:20:48.230Z,7.83
2022-10-01T02:21:49.958Z,7.86
2022-10-01T02:22:51.694Z,7.89
2022-10-01T02:23:53.433Z,7.92
2022-10-01T02:24:55.159Z,7.94
2022-10-01T02:25:56.915Z,7.98
2022-10-01T02:26:58.643Z,8.01
2022-10-01T02:28:00.419Z,8.04
2022-10-01T02:29:02.096Z,8.07
2022-10-01T02:30:03.840Z,8.09
2022-10-01T02:31:05.697Z,8.12
2022-10-01T02:32:07.311Z,8.16
2022-10-01T02:33:09.037Z,8.18
2022-10-01T02:34:12.701Z,8.22
2022-10-01T02:35:12.507Z,8.24
2022-10-01T02:36:14.259Z,8.26
2022-10-01T02:37:15.970Z,8.29
2022-10-01T02:38:17.707Z,8.33
2022-10-01T02:39:19.468Z,8.35
2022-10-01T02:40:21.186Z,8.37
2022-10-01T02:41:22.934Z,8.4
2022-10-01T02:42:24.644Z,8.42
2022-10-01T02:43:26.377Z,8.45
2022-10-01T02:44:28.124Z,8.47
2022-10-01T02:45:29.937Z,8.5
2022-10-01T02:46:31.612Z,8.51
2022-10-01T02:47:33.324Z,8.55
2022-10-01T02:48:35.076Z,8.57
2022-10-01T02:49:36.778Z,8.59
2022-10-01T02:50:38.513Z,8.61
2022-10-01T02:51:40.255Z,8.63
2022-10-01T02:52:41.982Z,8.64
2022-10-01T02:53:43.721Z,8.66
2022-10-01T02:54:45.447Z,8.66
2022-10-01T02:55:47.186Z,8.69
2022-10-01T02:56:49.515Z,8.69
2022-10-01T02:57:50.656Z,8.7
2022-10-01T02:58:52.369Z,8.72
2022-10-01T02:59:54.121Z,8.73
2022-10-01T03:00:55.841Z,8.74
2022-10-01T03:01:57.736Z,8.76
2022-10-01T03:02:59.481Z,8.76
2022-10-01T03:04:01.048Z,8.77
2022-10-01T03:05:02.792Z,8.79
2022-10-01T03:06:04.535Z,8.8
2022-10-01T03:07:06.287Z,8.8
2022-10-01T03:08:07.999Z,8.81
2022-10-01T03:09:09.747Z,8.83
2022-10-01T03:10:11.491Z,8.84
2022-10-01T03:11:13.205Z,8.84
2022-10-01T03:12:14.951Z,8.85
2022-10-01T03:13:16.670Z,8.86
2022-10-01T03:14:18.403Z,8.86
2022-10-01T03:15:20.141Z,8.87
2022-10-01T03:16:21.959Z,8.87
2022-10-01T03:17:23.617Z,8.88
2022-10-01T03:18:25.332Z,8.88
2022-10-01T03:19:27.076Z,8.89
2022-10-01T03:20:28.807Z,8.89
2022-10-01T03:21:30.882Z,8.9
2022-10-01T03:22:32.304Z,8.89
2022-10-01T03:23:34.023Z,8.9
2022-10-01T03:24:35.760Z,8.9
2022-10-01T03:25:37.492Z,8.91
2022-10-01T03:26:39.220Z,8.91
2022-10-01T03:27:40.985Z,8.9
2022-10-01T03:28:42.697Z,8.91
2022-10-01T03:29:44.424Z,8.91
2022-10-01T03:30:46.197Z,8.91
2022-10-01T03:31:47.949Z,8.9
2022-10-01T03:32:49.648Z,8.9
2022-10-01T03:33:51.368Z,8.89
2022-10-01T03:34:53.091Z,8.89
2022-10-01T03:35:54.823Z,8.88
2022-10-01T03:36:56.659Z,8.88
2022-10-01T03:37:58.310Z,8.87
2022-10-01T03:39:00.146Z,8.87
2022-10-01T03:40:01.755Z,8.86
2022-10-01T03:41:03.514Z,8.86
2022-10-01T03:42:05.255Z,8.84
2022-10-01T03:43:06.975Z,8.83
2022-10-01T03:44:08.709Z,8.82
2022-10-01T03:45:10.450Z,8.81
2022-10-01T03:46:12.221Z,8.8
2022-10-01T03:47:13.916Z,8.79
2022-10-01T03:48:15.631Z,8.78
2022-10-01T03:49:17.366Z,8.77
2022-10-01T03:50:19.115Z,8.75
2022-10-01T03:51:20.844Z,8.76
2022-10-01T03:52:22.588Z,8.74
2022-10-01T03:53:24.315Z,8.74
2022-10-01T03:54:26.034Z,8.73
2022-10-01T03:55:27.785Z,8.72
2022-10-01T03:56:29.521Z,8.73
2022-10-01T03:57:31.257Z,8.72
2022-10-01T03:58:32.973Z,8.73
2022-10-01T03:59:34.715Z,8.71
2022-10-01T04:00:36.454Z,8.71
2022-10-01T04:01:38.607Z,8.7
2022-10-01T04:02:40.036Z,8.7
2022-10-01T04:03:41.667Z,8.69
2022-10-01T04:04:43.386Z,8.69
2022-10-01T04:05:45.132Z,8.69
2022-10-01T04:06:46.865Z,8.68
2022-10-01T04:07:48.603Z,8.67
2022-10-01T04:08:50.320Z,8.66
2022-10-01T04:09:52.069Z,8.66
2022-10-01T04:10:53.777Z,8.65
2022-10-01T04:11:55.533Z,8.64
2022-10-01T04:12:57.248Z,8.63
2022-10-01T04:13:59.008Z,8.63
2022-10-01T04:15:00.738Z,8.61
2022-10-01T04:16:02.528Z,8.61
2022-10-01T04:17:04.205Z,8.61
2022-10-01T04:18:05.922Z,8.59
2022-10-01T04:19:07.656Z,8.58
2022-10-01T04:20:09.389Z,8.57
2022-10-01T04:21:11.145Z,8.56
2022-10-01T04:22:12.887Z,8.56
2022-10-01T04:23:14.610Z,8.55
2022-10-01T04:24:16.344Z,8.55
2022-10-01T04:25:18.060Z,8.53
2022-10-01T04:26:19.797Z,8.53
2022-10-01T04:27:21.562Z,8.52
2022-10-01T04:28:23.335Z,8.51
2022-10-01T04:29:24.999Z,8.52
2022-10-01T04:30:26.731Z,8.5
2022-10-01T04:31:28.519Z,8.5
2022-10-01T04:32:30.216Z,8.5
2022-10-01T04:33:31.936Z,8.49
2022-10-01T04:34:33.690Z,8.5
2022-10-01T04:35:35.415Z,8.49
2022-10-01T04:36:37.142Z,8.49
2022-10-01T04:37:38.882Z,8.49
2022-10-01T04:38:40.685Z,8.49
2022-10-01T04:39:42.335Z,8.49
2022-10-01T04:40:44.087Z,8.49
2022-10-01T04:41:45.804Z,8.49
2022-10-01T04:42:47.553Z,8.49
2022-10-01T04:43:49.274Z,8.5
2022-10-01T04:44:51.018Z,8.5
2022-10-01T04:45:52.754Z,8.5
2022-10-01T04:46:54.541Z,8.5
2022-10-01T04:47:56.261Z,8.5
2022-10-01T04:48:57.950Z,8.49
2022-10-01T04:49:59.664Z,8.5
2022-10-01T04:51:01.421Z,8.5
2022-10-01T04:52:03.139Z,8.5
2022-10-01T04:53:04.889Z,8.51
2022-10-01T04:54:06.622Z,8.51
2022-10-01T04:55:08.363Z,8.5
2022-10-01T04:56:10.104Z,8.48
2022-10-01T04:57:11.814Z,8.47
2022-10-01T04:58:13.561Z,8.45
2022-10-01T04:59:15.293Z,8.42
2022-10-01T05:00:17.013Z,8.4
2022-10-01T05:01:18.845Z,8.37
2022-10-01T05:02:20.541Z,8.35
2022-10-01T05:03:22.228Z,8.32
2022-10-01T05:04:23.961Z,8.3
2022-10-01T05:05:25.711Z,8.28
2022-10-01T05:06:27.432Z,8.26
2022-10-01T05:07:29.151Z,8.23
2022-10-01T05:08:30.904Z,8.22
2022-10-01T05:09:32.636Z,8.21
2022-10-01T05:10:34.360Z,8.2
2022-10-01T05:11:36.500Z,8.19
2022-10-01T05:12:37.836Z,8.18
2022-10-01T05:13:39.609Z,8.18
2022-10-01T05:14:41.297Z,8.18
2022-10-01T05:15:43.042Z,8.18
2022-10-01T05:16:44.844Z,8.18
2022-10-01T05:17:46.496Z,8.19
2022-10-01T05:18:48.234Z,8.18
2022-10-01T05:19:49.957Z,8.18
2022-10-01T05:20:51.684Z,8.17
2022-10-01T05:21:53.427Z,8.17
2022-10-01T05:22:55.161Z,8.17
2022-10-01T05:23:56.909Z,8.15
2022-10-01T05:24:58.661Z,8.15
2022-10-01T05:26:00.383Z,8.15
2022-10-01T05:27:02.114Z,8.14
2022-10-01T05:28:03.950Z,8.14
2022-10-01T05:29:05.583Z,8.14
2022-10-01T05:30:07.308Z,8.14
2022-10-01T05:31:09.125Z,8.15
2022-10-01T05:32:10.777Z,8.15
2022-10-01T05:33:12.531Z,8.16
2022-10-01T05:34:14.257Z,8.17
2022-10-01T05:35:15.981Z,8.18
2022-10-01T05:36:17.735Z,8.2
2022-10-01T05:37:19.446Z,8.21
2022-10-01T05:38:21.182Z,8.22
2022-10-01T05:39:22.919Z,8.24
2022-10-01T05:40:24.644Z,8.25
2022-10-01T05:41:26.379Z,8.27
2022-10-01T05:42:28.115Z,8.3
2022-10-01T05:43:29.842Z,8.31
2022-10-01T05:44:31.602Z,8.33
2022-10-01T05:45:33.401Z,8.36
2022-10-01T05:46:35.071Z,8.38
2022-10-01T05:47:36.798Z,8.4
2022-10-01T05:48:38.527Z,8.42
2022-10-01T05:49:40.249Z,8.45
2022-10-01T05:50:41.996Z,8.46
2022-10-01T05:51:43.728Z,8.48
2022-10-01T05:52:45.452Z,8.5
2022-10-01T05:53:50.204Z,8.54
2022-10-01T05:54:48.915Z,8.55
2022-10-01T05:55:50.676Z,8.57
2022-10-01T05:56:52.417Z,8.58
2022-10-01T05:57:54.143Z,8.6
2022-10-01T05:58:55.895Z,8.62
2022-10-01T05:59:57.625Z,8.63
2022-10-01T06:00:59.332Z,8.65
2022-10-01T06:02:01.180Z,8.65
2022-10-01T06:03:02.925Z,8.67
2022-10-01T06:04:04.554Z,8.68
2022-10-01T06:05:06.299Z,8.68
2022-10-01T06:06:08.009Z,8.7
2022-10-01T06:07:09.765Z,8.7
2022-10-01T06:08:11.480Z,8.71
2022-10-01T06:09:13.254Z,8.72
2022-10-01T06:10:15.013Z,8.72
2022-10-01T06:11:16.673Z,8.73
2022-10-01T06:12:19.921Z,8.74
2022-10-01T06:13:20.293Z,8.74
2022-10-01T06:14:21.898Z,8.76
2022-10-01T06:15:23.624Z,8.76
2022-10-01T06:16:25.497Z,8.76
2022-10-01T06:17:27.106Z,8.77
2022-10-01T06:18:28.835Z,8.77
2022-10-01T06:19:30.569Z,8.78
2022-10-01T06:20:32.302Z,8.78
2022-10-01T06:21:34.326Z,8.79
2022-10-01T06:22:35.758Z,8.79
2022-10-01T06:23:37.494Z,8.8
2022-10-01T06:24:39.245Z,8.8
2022-10-01T06:25:40.980Z,8.81
2022-10-01T06:26:42.691Z,8.8
2022-10-01T06:27:44.484Z,8.81
2022-10-01T06:28:46.181Z,8.82
2022-10-01T06:29:47.912Z,8.82
2022-10-01T06:30:49.648Z,8.83
2022-10-01T06:31:51.420Z,8.83
2022-10-01T06:32:53.106Z,8.83
2022-10-01T06:33:54.844Z,8.84
2022-10-01T06:34:56.598Z,8.84
2022-10-01T06:35:58.319Z,8.85
2022-10-01T06:37:00.087Z,8.85
2022-10-01T06:38:01.779Z,8.86
2022-10-01T06:39:03.513Z,8.87
2022-10-01T06:40:05.271Z,8.86
2022-10-01T06:41:06.993Z,8.87
2022-10-01T06:42:08.725Z,8.87
2022-10-01T06:43:10.458Z,8.89
2022-10-01T06:44:12.183Z,8.89
2022-10-01T06:45:13.935Z,8.89
2022-10-01T06:46:15.728Z,8.88
2022-10-01T06:47:17.405Z,8.9
2022-10-01T06:48:19.125Z,8.9
2022-10-01T06:49:20.848Z,8.9
2022-10-01T06:50:22.593Z,8.91
2022-10-01T06:51:24.321Z,8.91
2022-10-01T06:52:26.059Z,8.92
2022-10-01T06:53:27.784Z,8.92
2022-10-01T06:54:29.521Z,8.92
2022-10-01T06:55:31.266Z,8.93
2022-10-01T06:56:32.993Z,8.93
2022-10-01T06:57:34.723Z,8.93
2022-10-01T06:58:36.459Z,8.94
2022-10-01T06:59:38.180Z,8.94
2022-10-01T07:00:40.020Z,8.93
2022-10-01T07:01:41.737Z,8.94
2022-10-01T07:02:43.455Z,8.94
2022-10-01T07:03:45.116Z,8.94
2022-10-01T07:04:46.868Z,8.95
2022-10-01T07:05:48.603Z,8.95
2022-10-01T07:06:50.328Z,8.95
2022-10-01T07:07:52.082Z,8.96
2022-10-01T07:08:53.802Z,8.96
2022-10-01T07:09:55.520Z,8.96
2022-10-01T07:10:57.279Z,8.97
2022-10-01T07:11:58.996Z,8.98
2022-10-01T07:13:00.732Z,8.98
2022-10-01T07:14:02.461Z,8.99
2022-10-01T07:15:04.204Z,8.99
2022-10-01T07:16:06.004Z,8.99
2022-10-01T07:17:07.681Z,9
2022-10-01T07:18:09.605Z,9
2022-10-01T07:19:11.141Z,9
2022-10-01T07:20:12.887Z,9.01
2022-10-01T07:21:14.613Z,9.02
2022-10-01T07:22:16.341Z,9.02
2022-10-01T07:23:18.065Z,9.02
2022-10-01T07:24:19.799Z,9.02
2022-10-01T07:25:21.537Z,9.03
2022-10-01T07:26:23.276Z,9.03
2022-10-01T07:27:25.023Z,9.04
2022-10-01T07:28:26.829Z,9.04
2022-10-01T07:29:28.489Z,9.04
2022-10-01T07:30:30.232Z,9.04
2022-10-01T07:31:32.624Z,9.05
2022-10-01T07:32:33.671Z,9.05
2022-10-01T07:33:35.391Z,9.06
2022-10-01T07:34:37.150Z,9.07
2022-10-01T07:35:38.889Z,9.07
2022-10-01T07:36:40.621Z,9.08
2022-10-01T07:37:42.359Z,9.08
2022-10-01T07:38:44.084Z,9.09
2022-10-01T07:39:45.805Z,9.09
2022-10-01T07:40:47.578Z,9.1
2022-10-01T07:41:49.289Z,9.09
2022-10-01T07:42:51.028Z,9.1
2022-10-01T07:43:52.749Z,9.11
2022-10-01T07:44:54.485Z,9.11
2022-10-01T07:45:56.268Z,9.12
2022-10-01T07:46:58.008Z,9.12
2022-10-01T07:47:59.691Z,9.12
2022-10-01T07:49:01.407Z,9.13
2022-10-01T07:50:03.153Z,9.13
2022-10-01T07:51:04.899Z,9.14
2022-10-01T07:52:10.938Z,9.14
2022-10-01T07:53:08.337Z,9.14
2022-10-01T07:54:10.087Z,9.15
2022-10-01T07:55:11.816Z,9.15
2022-10-01T07:56:13.585Z,9.16
2022-10-01T07:57:15.305Z,9.16
2022-10-01T07:58:17.035Z,9.16
2022-10-01T07:59:18.769Z,9.17
2022-10-01T08:00:20.499Z,9.17
2022-10-01T08:01:22.241Z,9.18
2022-10-01T08:02:24.068Z,9.18
2022-10-01T08:03:25.689Z,9.17
2022-10-01T08:04:27.423Z,9.18
2022-10-01T08:05:29.160Z,9.19
2022-10-01T08:06:30.901Z,9.2
2022-10-01T08:07:32.640Z,9.2
2022-10-01T08:08:34.369Z,9.2
2022-10-01T08:09:36.116Z,9.2
2022-10-01T08:10:37.851Z,9.2
2022-10-01T08:11:39.560Z,9.21
2022-10-01T08:12:41.308Z,9.22
2022-10-01T08:13:43.032Z,9.23
2022-10-01T08:14:44.777Z,9.22
2022-10-01T08:15:46.502Z,9.23
2022-10-01T08:16:48.284Z,9.23
2022-10-01T08:17:49.996Z,9.24
2022-10-01T08:18:51.709Z,9.25
2022-10-01T08:19:53.444Z,9.25
2022-10-01T08:20:55.181Z,9.25
2022-10-01T08:21:56.925Z,9.25
2022-10-01T08:22:58.659Z,9.26
2022-10-01T08:24:00.384Z,9.27
2022-10-01T08:25:02.099Z,9.28
2022-10-01T08:26:03.841Z,9.29
2022-10-01T08:27:05.570Z,9.29
2022-10-01T08:28:07.414Z,9.29
2022-10-01T08:29:11.579Z,9.3
2022-10-01T08:30:10.766Z,9.3
2022-10-01T08:31:12.478Z,9.31
2022-10-01T08:32:14.221Z,9.32
2022-10-01T08:33:15.936Z,9.33
2022-10-01T08:34:17.679Z,9.33
2022-10-01T08:35:19.432Z,9.33
2022-10-01T08:36:21.133Z,9.34
2022-10-01T08:37:22.870Z,9.35
2022-10-01T08:38:24.604Z,9.36
2022-10-01T08:39:26.323Z,9.36
2022-10-01T08:40:28.066Z,9.38
2022-10-01T08:41:29.812Z,9.39
2022-10-01T08:42:31.539Z,9.39
2022-10-01T08:43:33.261Z,9.4
2022-10-01T08:44:34.992Z,9.4
2022-10-01T08:45:36.817Z,9.41
2022-10-01T08:46:38.454Z,9.42
2022-10-01T08:47:40.203Z,9.42
2022-10-01T08:48:41.938Z,9.41
2022-10-01T08:49:43.659Z,9.42
2022-10-01T08:50:45.398Z,9.43
2022-10-01T08:51:47.138Z,9.43
2022-10-01T08:52:48.863Z,9.43
2022-10-01T08:53:50.605Z,9.44
2022-10-01T08:54:52.336Z,9.46
2022-10-01T08:55:54.061Z,9.46
2022-10-01T08:56:55.794Z,9.46
2022-10-01T08:57:57.536Z,9.49
2022-10-01T08:58:59.270Z,9.49
2022-10-01T09:00:00.999Z,9.5
2022-10-01T09:01:02.775Z,9.51
2022-10-01T09:02:05.628Z,9.51
2022-10-01T09:03:06.197Z,9.51
2022-10-01T09:04:07.991Z,9.53
2022-10-01T09:05:09.718Z,9.53
2022-10-01T09:06:15.997Z,9.52
2022-10-01T09:07:18.346Z,9.54
2022-10-01T09:08:20.004Z,9.53
2022-10-01T09:09:21.733Z,9.54
2022-10-01T09:10:23.480Z,9.55
2022-10-01T09:11:25.215Z,9.56
2022-10-01T09:12:26.945Z,9.57
2022-10-01T09:13:28.670Z,9.57
2022-10-01T09:14:30.426Z,9.57
2022-10-01T09:15:32.161Z,9.57
2022-10-01T09:16:33.875Z,9.59
2022-10-01T09:17:35.626Z,9.59
2022-10-01T09:18:37.366Z,9.59
2022-10-01T09:19:40.866Z,9.6
2022-10-01T09:20:40.826Z,9.61
2022-10-01T09:21:42.573Z,9.61
2022-10-01T09:22:44.295Z,9.62
2022-10-01T09:23:46.008Z,9.62
2022-10-01T09:24:47.767Z,9.62
2022-10-01T09:25:49.491Z,9.64
2022-10-01T09:26:51.232Z,9.64
2022-10-01T09:27:53.050Z,9.65
2022-10-01T09:28:54.710Z,9.66
2022-10-01T09:29:56.470Z,9.66
2022-10-01T09:30:58.162Z,9.67
2022-10-01T09:31:59.959Z,9.68
2022-10-01T09:33:01.619Z,9.68
2022-10-01T09:34:03.354Z,9.7
2022-10-01T09:35:05.084Z,9.71
2022-10-01T09:36:06.889Z,9.72
2022-10-01T09:37:08.591Z,9.73
2022-10-01T09:38:10.298Z,9.74
2022-10-01T09:39:12.015Z,9.75
2022-10-01T09:40:13.757Z,9.76
2022-10-01T09:41:15.489Z,9.78
2022-10-01T09:42:17.251Z,9.78
2022-10-01T09:43:18.967Z,9.8
2022-10-01T09:44:20.700Z,9.81
2022-10-01T09:45:22.421Z,9.83
2022-10-01T09:46:24.244Z,9.86
2022-10-01T09:47:25.912Z,9.88
2022-10-01T09:48:27.627Z,9.89
2022-10-01T09:49:29.386Z,9.91
2022-10-01T09:50:31.109Z,9.92
2022-10-01T09:51:35.924Z,9.93
2022-10-01T09:52:34.614Z,9.96
2022-10-01T09:53:37.781Z,9.97
2022-10-01T09:54:38.075Z,9.98
2022-10-01T09:55:44.971Z,9.99
2022-10-01T09:57:16.826Z,10.02
2022-10-01T09:58:17.103Z,10.02
2022-10-01T09:59:18.874Z,10.03
2022-10-01T10:00:20.594Z,10.04
2022-10-01T10:01:22.334Z,10.05
2022-10-01T10:02:24.173Z,10.06
2022-10-01T10:03:25.914Z,10.07
2022-10-01T10:04:27.509Z,10.09
2022-10-01T10:05:29.255Z,10.12
2022-10-01T10:06:31.100Z,10.15
2022-10-01T10:07:32.745Z,10.16
2022-10-01T10:08:34.452Z,10.2
2022-10-01T10:09:36.183Z,10.22
2022-10-01T10:10:37.937Z,10.24
2022-10-01T10:11:39.658Z,10.27
2022-10-01T10:12:41.396Z,10.28
2022-10-01T10:13:43.127Z,10.31
2022-10-01T10:14:44.862Z,10.33
2022-10-01T10:15:46.720Z,10.35
2022-10-01T10:16:48.342Z,10.39
2022-10-01T10:17:50.077Z,10.4
2022-10-01T10:18:51.846Z,10.42
2022-10-01T10:19:53.546Z,10.43
2022-10-01T10:20:55.273Z,10.45
2022-10-01T10:21:57.040Z,10.46
2022-10-01T10:22:58.751Z,10.47
2022-10-01T10:24:00.462Z,10.47
2022-10-01T10:25:02.196Z,10.49
2022-10-01T10:26:03.948Z,10.48
2022-10-01T10:27:05.693Z,10.49
2022-10-01T10:28:07.477Z,10.49
2022-10-01T10:29:09.159Z,10.5
2022-10-01T10:30:10.912Z,10.52
2022-10-01T10:31:12.722Z,10.53
2022-10-01T10:32:14.336Z,10.54
2022-10-01T10:33:16.090Z,10.56
2022-10-01T10:34:17.820Z,10.57
2022-10-01T10:35:19.548Z,10.58
2022-10-01T10:36:21.292Z,10.58
2022-10-01T10:37:23.013Z,10.59
2022-10-01T10:38:24.764Z,10.59
2022-10-01T10:39:26.494Z,10.6
2022-10-01T10:40:29.673Z,10.62
2022-10-01T10:41:29.947Z,10.62
2022-10-01T10:42:31.712Z,10.64
2022-10-01T10:43:33.426Z,10.64
2022-10-01T10:44:35.196Z,10.63
2022-10-01T10:45:36.890Z,10.64
2022-10-01T10:46:42.752Z,10.65
2022-10-01T10:47:40.368Z,10.65
2022-10-01T10:48:42.125Z,10.64
2022-10-01T10:49:43.851Z,10.64
2022-10-01T10:50:44.595Z,10.64
2022-10-01T10:51:45.957Z,10.62
2022-10-01T10:52:47.690Z,10.63
2022-10-01T10:53:49.412Z,10.62
2022-10-01T10:54:51.148Z,10.63
2022-10-01T10:55:52.877Z,10.64
2022-10-01T10:57:04.903Z,10.65
2022-10-01T10:58:06.656Z,10.67
2022-10-01T10:59:08.389Z,10.68
2022-10-01T11:00:10.176Z,10.7
2022-10-01T11:01:11.902Z,10.73
2022-10-01T11:02:13.666Z,10.75
2022-10-01T11:03:15.326Z,10.78
2022-10-01T11:04:17.099Z,10.81
2022-10-01T11:05:18.791Z,10.83
2022-10-01T11:06:20.526Z,10.86
2022-10-01T11:07:22.261Z,10.9
2022-10-01T11:08:24.009Z,10.94
2022-10-01T11:09:25.716Z,10.96
2022-10-01T11:10:27.465Z,11
2022-10-01T11:11:29.181Z,11.01
2022-10-01T11:12:30.947Z,11.03
2022-10-01T11:13:32.656Z,11.06
2022-10-01T11:14:34.385Z,11.09
2022-10-01T11:15:36.216Z,11.12
2022-10-01T11:16:38.150Z,11.16
2022-10-01T11:17:39.613Z,11.19
2022-10-01T11:18:41.311Z,11.23
2022-10-01T11:19:43.055Z,11.25
2022-10-01T11:20:44.797Z,11.32
2022-10-01T11:21:46.539Z,11.36
2022-10-01T11:22:48.274Z,11.4
2022-10-01T11:23:49.995Z,11.45
2022-10-01T11:24:51.734Z,11.51
2022-10-01T11:25:53.493Z,11.57
2022-10-01T11:26:55.212Z,11.64
2022-10-01T11:27:57.041Z,11.72
2022-10-01T11:28:58.682Z,11.8
2022-10-01T11:30:00.401Z,11.85
2022-10-01T11:31:02.214Z,11.89
2022-10-01T11:32:03.876Z,11.91
2022-10-01T11:33:05.614Z,11.92
2022-10-01T11:34:07.348Z,11.92
2022-10-01T11:35:09.082Z,11.92
2022-10-01T11:36:10.809Z,11.92
2022-10-01T11:37:12.595Z,11.91
2022-10-01T11:38:14.280Z,11.89
2022-10-01T11:39:16.014Z,11.88
2022-10-01T11:40:17.756Z,11.87
2022-10-01T11:41:19.477Z,11.86
2022-10-01T11:42:21.229Z,11.84
2022-10-01T11:43:22.946Z,11.84
2022-10-01T11:44:24.750Z,11.83
2022-10-01T11:45:26.412Z,11.83
2022-10-01T11:46:28.184Z,11.84
2022-10-01T11:47:29.925Z,11.84
2022-10-01T11:48:31.638Z,11.84
2022-10-01T11:49:33.356Z,11.85
2022-10-01T11:50:39.111Z,11.86
2022-10-01T11:51:36.832Z,11.86
2022-10-01T11:52:38.603Z,11.86
2022-10-01T11:53:40.298Z,11.85
2022-10-01T11:54:42.057Z,11.84
2022-10-01T11:55:43.775Z,11.84
2022-10-01T11:56:45.495Z,11.85
2022-10-01T11:57:47.257Z,11.85
2022-10-01T11:58:48.960Z,11.9
2022-10-01T11:59:50.701Z,11.95
2022-10-01T12:00:52.448Z,12
2022-10-01T12:01:54.253Z,12.08
2022-10-01T12:02:55.924Z,12.13
2022-10-01T12:03:57.640Z,12.22
2022-10-01T12:04:59.389Z,12.26
2022-10-01T12:06:01.120Z,12.29
2022-10-01T12:07:02.834Z,12.31
2022-10-01T12:08:04.639Z,12.33
2022-10-01T12:09:06.303Z,12.37
2022-10-01T12:10:08.092Z,12.39
2022-10-01T12:11:30.474Z,12.42
2022-10-01T12:12:32.212Z,12.43
2022-10-01T12:13:34.051Z,12.45
2022-10-01T12:14:37.110Z,12.44
2022-10-01T12:15:37.414Z,12.43
2022-10-01T12:16:49.509Z,12.42
2022-10-01T12:17:51.169Z,12.4
2022-10-01T12:18:52.912Z,12.39
2022-10-01T12:19:54.612Z,12.38
2022-10-01T12:20:56.358Z,12.36
2022-10-01T12:21:58.108Z,12.36
2022-10-01T12:22:59.821Z,12.34
2022-10-01T12:24:03.048Z,12.32
2022-10-01T12:25:03.283Z,12.34
2022-10-01T12:26:05.012Z,12.32
2022-10-01T12:27:07.837Z,12.38
2022-10-01T12:28:08.642Z,12.45
2022-10-01T12:29:10.245Z,12.54
2022-10-01T12:30:12.080Z,12.6
2022-10-01T12:31:13.782Z,12.66
2022-10-01T12:32:15.457Z,12.76
2022-10-01T12:33:17.196Z,12.84
2022-10-01T12:34:18.959Z,12.97
2022-10-01T12:35:20.640Z,13.03
2022-10-01T12:36:22.378Z,13.15
2022-10-01T12:37:24.101Z,13.24
2022-10-01T12:38:25.856Z,13.32
2022-10-01T12:39:27.590Z,13.41
2022-10-01T12:40:29.312Z,13.5
2022-10-01T12:41:31.048Z,13.56
2022-10-01T12:42:32.787Z,13.64
2022-10-01T12:43:34.530Z,13.73
2022-10-01T12:44:36.249Z,13.77
2022-10-01T12:45:37.997Z,13.82
2022-10-01T12:46:39.870Z,13.88
2022-10-01T12:47:41.462Z,13.94
2022-10-01T12:48:43.213Z,13.92
2022-10-01T12:49:44.941Z,13.98
2022-10-01T12:50:46.663Z,14.02
2022-10-01T12:51:48.389Z,14.06
2022-10-01T12:52:50.129Z,14.12
2022-10-01T12:53:51.871Z,14.14
2022-10-01T12:54:53.607Z,14.2
2022-10-01T12:55:55.343Z,14.23
2022-10-01T12:56:57.074Z,14.31
2022-10-01T12:57:58.808Z,14.36
2022-10-01T12:59:00.545Z,14.43
2022-10-01T13:00:02.287Z,14.51
2022-10-01T13:01:04.123Z,14.56
2022-10-01T13:02:05.772Z,14.63
2022-10-01T13:03:07.482Z,14.7
2022-10-01T13:04:09.196Z,14.77
2022-10-01T13:05:10.941Z,14.81
2022-10-01T13:06:12.683Z,14.82
2022-10-01T13:07:14.402Z,14.88
2022-10-01T13:08:16.156Z,14.89
2022-10-01T13:09:17.875Z,14.89
2022-10-01T13:10:19.600Z,14.93
2022-10-01T13:11:21.360Z,14.93
2022-10-01T13:12:23.069Z,14.95
2022-10-01T13:13:24.835Z,14.95
2022-10-01T13:14:26.544Z,14.93
2022-10-01T13:15:28.285Z,14.96
2022-10-01T13:16:30.082Z,14.94
2022-10-01T13:17:34.826Z,14.96
2022-10-01T13:18:33.485Z,14.99
2022-10-01T13:19:35.216Z,15.02
2022-10-01T13:20:36.943Z,15.07
2022-10-01T13:21:38.711Z,15.1
2022-10-01T13:22:40.404Z,15.13
2022-10-01T13:23:42.184Z,15.19
2022-10-01T13:24:43.892Z,15.23
2022-10-01T13:25:45.627Z,15.24
2022-10-01T13:26:47.358Z,15.3
2022-10-01T13:27:49.125Z,15.35
2022-10-01T13:28:50.838Z,15.4
2022-10-01T13:29:52.558Z,15.43
2022-10-01T13:30:54.305Z,15.49
2022-10-01T13:31:56.032Z,15.52
2022-10-01T13:32:57.770Z,15.54
2022-10-01T13:33:59.494Z,15.59
2022-10-01T13:35:01.220Z,15.62
2022-10-01T13:36:02.950Z,15.66
2022-10-01T13:37:04.677Z,15.72
2022-10-01T13:38:06.440Z,15.78
2022-10-01T13:39:08.153Z,15.83